Vasiliy Bozhenko — URHP — position and weather

sailwx.info

Track history (hours):
 
Tides and Currents Weather Stations Pressure Air Temp Water Temp Dewpoint Dewpoint Depression Visibility Wind Speed Wind Dir Waves Ship Positions

Vasiliy Bozhenko

Last reported at 2017-Dec-01 17:11 UTC. Time now 2017-Dec-13 22:25 UTC.
Position N 46°33' E 032°17'.
Warning: this ship's position is 12 days out of date.

Length 114 m; draft 2.8 m.

Type: Cargo ship. MMSI: 272085000.

Date/timePositionNaut miles runAvg speedWind from/ knotsBaromVisibWave heightAir tempDewpointWater temp
2017-Dec-01 17:11N 46°33' E 032°17'3 7.6
2017-Dec-01 16:44N 46°33' E 032°13'3 7.7
2017-Dec-01 16:20N 46°32' E 032°08'3 7.6
2017-Dec-01 16:01N 46°32' E 032°05'4 7.4
2017-Dec-01 15:31N 46°33' E 031°60'4 7.2
2017-Dec-01 15:01N 46°34' E 031°55'4 7.2
2017-Dec-01 14:30N 46°35' E 031°50'  
2017-Nov-24 11:16N 46°24' E 030°55'2 7.4
2017-Nov-24 11:00N 46°26' E 030°55'4 7.1
2017-Nov-24 10:28N 46°30' E 030°55'32 6.6
2017-Nov-24 05:40N 46°35' E 031°41'1 7.3
2017-Nov-24 05:29N 46°36' E 031°43'4 7.2
2017-Nov-24 04:59N 46°36' E 031°48'3 7.2
2017-Nov-24 04:31N 46°35' E 031°53'4 7.3
2017-Nov-24 04:00N 46°33' E 031°58'5 7.3
2017-Nov-24 03:21N 46°32' E 032°04'3 7.5
2017-Nov-24 03:00N 46°32' E 032°08'  
Track history (hours):
 
Tides and Currents Weather Stations Pressure Air Temp Water Temp Dewpoint Dewpoint Depression Visibility Wind Speed Wind Dir Waves Ship Positions

Vasiliy Bozhenko

Last reported at 2017-Dec-01 17:11 UTC. Time now 2017-Dec-13 22:25 UTC.
Position N 46°33' E 032°17'.
Warning: this ship's position is 12 days out of date.

Length 114 m; draft 2.8 m.

Type: Cargo ship. MMSI: 272085000.

Date/timePositionNaut miles runAvg speedWind from/ knotsBaromVisibWave heightAir tempDewpointWater temp
2017-Dec-01 17:11N 46°33' E 032°17'3 7.6
2017-Dec-01 16:44N 46°33' E 032°13'3 7.7
2017-Dec-01 16:20N 46°32' E 032°08'3 7.6
2017-Dec-01 16:01N 46°32' E 032°05'4 7.4
2017-Dec-01 15:31N 46°33' E 031°60'4 7.2
2017-Dec-01 15:01N 46°34' E 031°55'4 7.2
2017-Dec-01 14:30N 46°35' E 031°50'  
2017-Nov-24 11:16N 46°24' E 030°55'2 7.4
2017-Nov-24 11:00N 46°26' E 030°55'4 7.1
2017-Nov-24 10:28N 46°30' E 030°55'32 6.6
2017-Nov-24 05:40N 46°35' E 031°41'1 7.3
2017-Nov-24 05:29N 46°36' E 031°43'4 7.2
2017-Nov-24 04:59N 46°36' E 031°48'3 7.2
2017-Nov-24 04:31N 46°35' E 031°53'4 7.3
2017-Nov-24 04:00N 46°33' E 031°58'5 7.3
2017-Nov-24 03:21N 46°32' E 032°04'3 7.5
2017-Nov-24 03:00N 46°32' E 032°08'  

Dump ship's entire track history